sensor_id;sensor_type;location;lat;lon;timestamp;temperature;humidity
58933;DHT22;44716;51.022;6.818;2024-01-07T00:02:25;21.50;56.70
58933;DHT22;44716;51.022;6.818;2024-01-07T00:04:50;21.40;56.70
58933;DHT22;44716;51.022;6.818;2024-01-07T00:07:16;21.40;56.80
58933;DHT22;44716;51.022;6.818;2024-01-07T00:09:42;21.40;57.50
58933;DHT22;44716;51.022;6.818;2024-01-07T00:12:07;21.30;56.90
58933;DHT22;44716;51.022;6.818;2024-01-07T00:14:33;21.30;57.00
58933;DHT22;44716;51.022;6.818;2024-01-07T00:16:58;21.30;57.00
58933;DHT22;44716;51.022;6.818;2024-01-07T00:19:24;21.30;57.00
58933;DHT22;44716;51.022;6.818;2024-01-07T00:21:49;21.30;57.10
58933;DHT22;44716;51.022;6.818;2024-01-07T00:24:15;21.20;57.50
58933;DHT22;44716;51.022;6.818;2024-01-07T00:26:41;21.40;57.10
58933;DHT22;44716;51.022;6.818;2024-01-07T00:29:06;21.30;56.90
58933;DHT22;44716;51.022;6.818;2024-01-07T00:31:32;21.30;57.00
58933;DHT22;44716;51.022;6.818;2024-01-07T00:33:57;21.40;57.10
58933;DHT22;44716;51.022;6.818;2024-01-07T00:36:23;21.30;56.80
58933;DHT22;44716;51.022;6.818;2024-01-07T00:38:48;21.30;56.90
58933;DHT22;44716;51.022;6.818;2024-01-07T00:41:14;21.20;56.80
58933;DHT22;44716;51.022;6.818;2024-01-07T00:43:39;21.20;56.90
58933;DHT22;44716;51.022;6.818;2024-01-07T00:46:06;21.20;56.90
58933;DHT22;44716;51.022;6.818;2024-01-07T00:48:31;21.20;56.90
58933;DHT22;44716;51.022;6.818;2024-01-07T00:50:57;21.20;56.90
58933;DHT22;44716;51.022;6.818;2024-01-07T00:53:22;21.20;56.90
58933;DHT22;44716;51.022;6.818;2024-01-07T00:55:48;21.20;57.00
58933;DHT22;44716;51.022;6.818;2024-01-07T00:58:13;21.20;57.10
58933;DHT22;44716;51.022;6.818;2024-01-07T01:00:39;21.10;57.10
58933;DHT22;44716;51.022;6.818;2024-01-07T01:03:04;21.10;57.20
58933;DHT22;44716;51.022;6.818;2024-01-07T01:05:30;21.10;57.20
58933;DHT22;44716;51.022;6.818;2024-01-07T01:07:55;21.10;57.30
58933;DHT22;44716;51.022;6.818;2024-01-07T01:10:21;21.10;57.40
58933;DHT22;44716;51.022;6.818;2024-01-07T01:12:46;21.00;57.40
58933;DHT22;44716;51.022;6.818;2024-01-07T01:15:12;21.00;57.60
58933;DHT22;44716;51.022;6.818;2024-01-07T01:17:38;21.00;57.60
58933;DHT22;44716;51.022;6.818;2024-01-07T01:20:03;21.00;57.60
58933;DHT22;44716;51.022;6.818;2024-01-07T01:22:29;21.00;57.60
58933;DHT22;44716;51.022;6.818;2024-01-07T01:24:54;21.00;57.70
58933;DHT22;44716;51.022;6.818;2024-01-07T01:27:21;20.90;57.70
58933;DHT22;44716;51.022;6.818;2024-01-07T01:29:47;20.90;57.90
58933;DHT22;44716;51.022;6.818;2024-01-07T01:32:12;20.90;57.80
58933;DHT22;44716;51.022;6.818;2024-01-07T01:34:39;20.80;57.90
58933;DHT22;44716;51.022;6.818;2024-01-07T01:37:05;20.80;57.90
58933;DHT22;44716;51.022;6.818;2024-01-07T01:39:30;20.90;57.90
58933;DHT22;44716;51.022;6.818;2024-01-07T01:41:56;20.80;57.90
58933;DHT22;44716;51.022;6.818;2024-01-07T01:44:23;20.80;58.00
58933;DHT22;44716;51.022;6.818;2024-01-07T01:46:49;20.80;58.10
58933;DHT22;44716;51.022;6.818;2024-01-07T01:49:14;20.80;58.00
58933;DHT22;44716;51.022;6.818;2024-01-07T01:51:40;20.70;58.10
58933;DHT22;44716;51.022;6.818;2024-01-07T01:54:06;20.70;58.10
58933;DHT22;44716;51.022;6.818;2024-01-07T01:56:32;20.70;58.10
58933;DHT22;44716;51.022;6.818;2024-01-07T01:58:58;20.70;58.10
58933;DHT22;44716;51.022;6.818;2024-01-07T02:01:24;20.70;58.70
58933;DHT22;44716;51.022;6.818;2024-01-07T02:03:50;20.70;58.10
58933;DHT22;44716;51.022;6.818;2024-01-07T02:06:17;20.70;58.20
58933;DHT22;44716;51.022;6.818;2024-01-07T02:08:43;20.70;58.20
58933;DHT22;44716;51.022;6.818;2024-01-07T02:11:18;20.60;58.20
58933;DHT22;44716;51.022;6.818;2024-01-07T02:13:44;20.70;58.20
58933;DHT22;44716;51.022;6.818;2024-01-07T02:16:10;20.60;58.20
58933;DHT22;44716;51.022;6.818;2024-01-07T02:18:36;20.60;58.20
58933;DHT22;44716;51.022;6.818;2024-01-07T02:21:02;20.60;58.30
58933;DHT22;44716;51.022;6.818;2024-01-07T02:23:27;20.60;58.30
58933;DHT22;44716;51.022;6.818;2024-01-07T02:25:53;20.60;58.30
58933;DHT22;44716;51.022;6.818;2024-01-07T02:28:18;20.60;58.30
58933;DHT22;44716;51.022;6.818;2024-01-07T02:30:44;20.60;58.20
58933;DHT22;44716;51.022;6.818;2024-01-07T02:33:09;20.60;58.30
58933;DHT22;44716;51.022;6.818;2024-01-07T02:35:35;20.60;58.30
58933;DHT22;44716;51.022;6.818;2024-01-07T02:38:00;20.60;58.30
58933;DHT22;44716;51.022;6.818;2024-01-07T02:40:26;20.60;58.30
58933;DHT22;44716;51.022;6.818;2024-01-07T02:42:51;20.60;58.30
58933;DHT22;44716;51.022;6.818;2024-01-07T02:45:17;20.60;58.30
58933;DHT22;44716;51.022;6.818;2024-01-07T02:47:42;20.60;58.30
58933;DHT22;44716;51.022;6.818;2024-01-07T02:50:08;20.60;58.30
58933;DHT22;44716;51.022;6.818;2024-01-07T02:52:34;20.60;58.20
58933;DHT22;44716;51.022;6.818;2024-01-07T02:54:59;20.60;58.20
58933;DHT22;44716;51.022;6.818;2024-01-07T02:57:27;20.60;58.20
58933;DHT22;44716;51.022;6.818;2024-01-07T02:59:52;20.60;58.20
58933;DHT22;44716;51.022;6.818;2024-01-07T03:02:18;20.60;58.20
58933;DHT22;44716;51.022;6.818;2024-01-07T03:04:44;20.60;58.30
58933;DHT22;44716;51.022;6.818;2024-01-07T03:07:09;20.60;58.20
58933;DHT22;44716;51.022;6.818;2024-01-07T03:09:35;20.60;58.30
58933;DHT22;44716;51.022;6.818;2024-01-07T03:12:00;20.60;58.30
58933;DHT22;44716;51.022;6.818;2024-01-07T03:14:26;20.60;58.30
58933;DHT22;44716;51.022;6.818;2024-01-07T03:16:52;20.60;58.30
58933;DHT22;44716;51.022;6.818;2024-01-07T03:19:17;20.60;58.40
58933;DHT22;44716;51.022;6.818;2024-01-07T03:21:43;20.50;58.40
58933;DHT22;44716;51.022;6.818;2024-01-07T03:24:08;20.50;58.40
58933;DHT22;44716;51.022;6.818;2024-01-07T03:26:34;20.50;58.40
58933;DHT22;44716;51.022;6.818;2024-01-07T03:28:59;20.50;58.40
58933;DHT22;44716;51.022;6.818;2024-01-07T03:31:26;20.50;58.40
58933;DHT22;44716;51.022;6.818;2024-01-07T03:33:53;20.50;58.50
58933;DHT22;44716;51.022;6.818;2024-01-07T03:36:20;20.50;58.50
58933;DHT22;44716;51.022;6.818;2024-01-07T03:38:45;20.40;58.40
58933;DHT22;44716;51.022;6.818;2024-01-07T03:41:17;20.40;58.50
58933;DHT22;44716;51.022;6.818;2024-01-07T03:43:46;20.40;58.60
58933;DHT22;44716;51.022;6.818;2024-01-07T03:46:12;20.50;58.60
58933;DHT22;44716;51.022;6.818;2024-01-07T03:48:37;20.40;58.70
58933;DHT22;44716;51.022;6.818;2024-01-07T03:51:03;20.40;59.20
58933;DHT22;44716;51.022;6.818;2024-01-07T03:53:28;20.40;58.70
58933;DHT22;44716;51.022;6.818;2024-01-07T03:55:54;20.40;58.60
58933;DHT22;44716;51.022;6.818;2024-01-07T03:58:19;20.40;58.70
58933;DHT22;44716;51.022;6.818;2024-01-07T04:00:45;20.40;58.60
58933;DHT22;44716;51.022;6.818;2024-01-07T04:03:10;20.40;58.60
58933;DHT22;44716;51.022;6.818;2024-01-07T04:05:36;20.40;58.70
58933;DHT22;44716;51.022;6.818;2024-01-07T04:08:03;20.40;58.60
58933;DHT22;44716;51.022;6.818;2024-01-07T04:10:28;20.30;58.60
58933;DHT22;44716;51.022;6.818;2024-01-07T04:12:54;20.40;58.80
58933;DHT22;44716;51.022;6.818;2024-01-07T04:15:19;20.40;58.80
58933;DHT22;44716;51.022;6.818;2024-01-07T04:17:45;20.30;58.70
58933;DHT22;44716;51.022;6.818;2024-01-07T04:20:12;20.30;58.80
58933;DHT22;44716;51.022;6.818;2024-01-07T04:22:38;20.30;58.90
58933;DHT22;44716;51.022;6.818;2024-01-07T04:25:03;20.30;59.00
58933;DHT22;44716;51.022;6.818;2024-01-07T04:27:30;20.30;59.00
58933;DHT22;44716;51.022;6.818;2024-01-07T04:29:56;20.30;58.90
58933;DHT22;44716;51.022;6.818;2024-01-07T04:32:21;20.30;59.00
58933;DHT22;44716;51.022;6.818;2024-01-07T04:34:47;20.30;59.00
58933;DHT22;44716;51.022;6.818;2024-01-07T04:37:12;20.30;59.10
58933;DHT22;44716;51.022;6.818;2024-01-07T04:39:38;20.30;59.10
58933;DHT22;44716;51.022;6.818;2024-01-07T04:42:03;20.30;59.10
58933;DHT22;44716;51.022;6.818;2024-01-07T04:44:29;20.30;59.10
58933;DHT22;44716;51.022;6.818;2024-01-07T04:46:54;20.30;59.10
58933;DHT22;44716;51.022;6.818;2024-01-07T04:49:20;20.20;59.00
58933;DHT22;44716;51.022;6.818;2024-01-07T04:51:45;20.30;59.00
58933;DHT22;44716;51.022;6.818;2024-01-07T04:54:11;20.30;58.90
58933;DHT22;44716;51.022;6.818;2024-01-07T04:56:36;20.30;58.90
58933;DHT22;44716;51.022;6.818;2024-01-07T04:59:02;20.30;59.00
58933;DHT22;44716;51.022;6.818;2024-01-07T05:01:27;20.30;59.00
58933;DHT22;44716;51.022;6.818;2024-01-07T05:03:53;20.30;58.90
58933;DHT22;44716;51.022;6.818;2024-01-07T05:06:18;20.30;59.00
58933;DHT22;44716;51.022;6.818;2024-01-07T05:08:44;20.30;59.00
58933;DHT22;44716;51.022;6.818;2024-01-07T05:11:09;20.20;58.90
58933;DHT22;44716;51.022;6.818;2024-01-07T05:13:35;20.20;59.00
58933;DHT22;44716;51.022;6.818;2024-01-07T05:16:00;20.20;59.10
58933;DHT22;44716;51.022;6.818;2024-01-07T05:18:26;20.20;59.10
58933;DHT22;44716;51.022;6.818;2024-01-07T05:20:52;20.20;59.00
58933;DHT22;44716;51.022;6.818;2024-01-07T05:23:18;20.20;59.00
58933;DHT22;44716;51.022;6.818;2024-01-07T05:25:44;20.20;59.10
58933;DHT22;44716;51.022;6.818;2024-01-07T05:28:12;20.20;59.20
58933;DHT22;44716;51.022;6.818;2024-01-07T05:30:39;20.20;59.10
58933;DHT22;44716;51.022;6.818;2024-01-07T05:33:04;20.20;59.10
58933;DHT22;44716;51.022;6.818;2024-01-07T05:35:30;20.20;59.10
58933;DHT22;44716;51.022;6.818;2024-01-07T05:37:56;20.20;59.10
58933;DHT22;44716;51.022;6.818;2024-01-07T05:40:21;20.20;59.10
58933;DHT22;44716;51.022;6.818;2024-01-07T05:42:47;20.10;59.20
58933;DHT22;44716;51.022;6.818;2024-01-07T05:45:12;20.10;59.20
58933;DHT22;44716;51.022;6.818;2024-01-07T05:47:38;20.10;59.10
58933;DHT22;44716;51.022;6.818;2024-01-07T05:50:05;20.20;59.10
58933;DHT22;44716;51.022;6.818;2024-01-07T05:52:30;20.20;59.00
58933;DHT22;44716;51.022;6.818;2024-01-07T05:54:56;20.30;59.00
58933;DHT22;44716;51.022;6.818;2024-01-07T05:57:22;20.30;59.00
58933;DHT22;44716;51.022;6.818;2024-01-07T05:59:47;20.30;58.90
58933;DHT22;44716;51.022;6.818;2024-01-07T06:02:13;20.40;58.90
58933;DHT22;44716;51.022;6.818;2024-01-07T06:04:38;20.40;58.80
58933;DHT22;44716;51.022;6.818;2024-01-07T06:07:04;20.50;58.80
58933;DHT22;44716;51.022;6.818;2024-01-07T06:09:29;20.50;58.80
58933;DHT22;44716;51.022;6.818;2024-01-07T06:11:55;20.50;58.80
58933;DHT22;44716;51.022;6.818;2024-01-07T06:14:21;20.50;58.70
58933;DHT22;44716;51.022;6.818;2024-01-07T06:16:47;20.50;58.80
58933;DHT22;44716;51.022;6.818;2024-01-07T06:19:12;20.50;59.40
58933;DHT22;44716;51.022;6.818;2024-01-07T06:21:40;20.50;58.80
58933;DHT22;44716;51.022;6.818;2024-01-07T06:24:07;20.50;58.80
58933;DHT22;44716;51.022;6.818;2024-01-07T06:26:32;20.50;58.80
58933;DHT22;44716;51.022;6.818;2024-01-07T06:28:58;20.50;58.80
58933;DHT22;44716;51.022;6.818;2024-01-07T06:31:24;20.50;58.90
58933;DHT22;44716;51.022;6.818;2024-01-07T06:33:49;20.50;58.90
58933;DHT22;44716;51.022;6.818;2024-01-07T06:36:15;20.50;58.90
58933;DHT22;44716;51.022;6.818;2024-01-07T06:38:40;20.50;58.90
58933;DHT22;44716;51.022;6.818;2024-01-07T06:41:06;20.50;58.90
58933;DHT22;44716;51.022;6.818;2024-01-07T06:43:32;20.40;59.00
58933;DHT22;44716;51.022;6.818;2024-01-07T06:45:57;20.40;59.00
58933;DHT22;44716;51.022;6.818;2024-01-07T06:48:23;20.40;59.00
58933;DHT22;44716;51.022;6.818;2024-01-07T06:50:48;20.40;59.00
58933;DHT22;44716;51.022;6.818;2024-01-07T06:53:14;20.40;59.10
58933;DHT22;44716;51.022;6.818;2024-01-07T06:55:39;20.40;59.00
58933;DHT22;44716;51.022;6.818;2024-01-07T06:58:05;20.40;59.10
58933;DHT22;44716;51.022;6.818;2024-01-07T07:00:31;20.40;59.10
58933;DHT22;44716;51.022;6.818;2024-01-07T07:02:56;20.40;59.20
58933;DHT22;44716;51.022;6.818;2024-01-07T07:05:22;20.40;59.20
58933;DHT22;44716;51.022;6.818;2024-01-07T07:07:47;20.30;59.10
58933;DHT22;44716;51.022;6.818;2024-01-07T07:10:13;20.30;59.10
58933;DHT22;44716;51.022;6.818;2024-01-07T07:12:38;20.30;59.20
58933;DHT22;44716;51.022;6.818;2024-01-07T07:15:04;20.30;59.20
58933;DHT22;44716;51.022;6.818;2024-01-07T07:17:29;20.30;59.20
58933;DHT22;44716;51.022;6.818;2024-01-07T07:19:55;20.30;59.20
58933;DHT22;44716;51.022;6.818;2024-01-07T07:22:20;20.30;59.20
58933;DHT22;44716;51.022;6.818;2024-01-07T07:24:46;20.30;59.20
58933;DHT22;44716;51.022;6.818;2024-01-07T07:27:11;20.30;59.30
58933;DHT22;44716;51.022;6.818;2024-01-07T07:29:37;20.30;59.20
58933;DHT22;44716;51.022;6.818;2024-01-07T07:32:02;20.30;59.20
58933;DHT22;44716;51.022;6.818;2024-01-07T07:34:28;20.30;59.20
58933;DHT22;44716;51.022;6.818;2024-01-07T07:36:54;20.30;59.20
58933;DHT22;44716;51.022;6.818;2024-01-07T07:39:20;20.30;59.20
58933;DHT22;44716;51.022;6.818;2024-01-07T07:41:46;20.30;59.30
58933;DHT22;44716;51.022;6.818;2024-01-07T07:44:11;20.30;59.40
58933;DHT22;44716;51.022;6.818;2024-01-07T07:46:37;20.30;59.30
58933;DHT22;44716;51.022;6.818;2024-01-07T07:49:03;20.30;59.20
58933;DHT22;44716;51.022;6.818;2024-01-07T07:51:28;20.30;59.20
58933;DHT22;44716;51.022;6.818;2024-01-07T07:53:54;20.30;59.30
58933;DHT22;44716;51.022;6.818;2024-01-07T07:56:20;20.30;59.30
58933;DHT22;44716;51.022;6.818;2024-01-07T07:58:45;20.30;59.30
58933;DHT22;44716;51.022;6.818;2024-01-07T08:01:11;20.30;59.30
58933;DHT22;44716;51.022;6.818;2024-01-07T08:03:36;20.20;59.90
58933;DHT22;44716;51.022;6.818;2024-01-07T08:06:02;20.20;59.30
58933;DHT22;44716;51.022;6.818;2024-01-07T08:08:28;20.20;59.30
58933;DHT22;44716;51.022;6.818;2024-01-07T08:10:53;20.20;59.30
58933;DHT22;44716;51.022;6.818;2024-01-07T08:13:19;20.20;59.40
58933;DHT22;44716;51.022;6.818;2024-01-07T08:15:44;20.20;59.40
58933;DHT22;44716;51.022;6.818;2024-01-07T08:18:10;20.20;59.40
58933;DHT22;44716;51.022;6.818;2024-01-07T08:20:36;20.20;59.40
58933;DHT22;44716;51.022;6.818;2024-01-07T08:23:01;20.20;59.40
58933;DHT22;44716;51.022;6.818;2024-01-07T08:25:27;20.20;59.30
58933;DHT22;44716;51.022;6.818;2024-01-07T08:27:52;20.20;59.30
58933;DHT22;44716;51.022;6.818;2024-01-07T08:30:18;20.20;59.40
58933;DHT22;44716;51.022;6.818;2024-01-07T08:32:43;20.20;59.40
58933;DHT22;44716;51.022;6.818;2024-01-07T08:35:09;20.20;59.40
58933;DHT22;44716;51.022;6.818;2024-01-07T08:37:34;20.20;59.30
58933;DHT22;44716;51.022;6.818;2024-01-07T08:40:00;20.20;59.30
58933;DHT22;44716;51.022;6.818;2024-01-07T08:42:26;20.20;59.30
58933;DHT22;44716;51.022;6.818;2024-01-07T08:44:52;20.20;59.30
58933;DHT22;44716;51.022;6.818;2024-01-07T08:47:17;20.20;59.30
58933;DHT22;44716;51.022;6.818;2024-01-07T08:49:43;20.20;59.30
58933;DHT22;44716;51.022;6.818;2024-01-07T08:52:08;20.20;59.40
58933;DHT22;44716;51.022;6.818;2024-01-07T08:54:34;20.20;59.30
58933;DHT22;44716;51.022;6.818;2024-01-07T08:57:00;20.20;58.90
58933;DHT22;44716;51.022;6.818;2024-01-07T08:59:25;20.20;59.20
58933;DHT22;44716;51.022;6.818;2024-01-07T09:01:51;20.20;59.30
58933;DHT22;44716;51.022;6.818;2024-01-07T09:04:16;20.20;59.30
58933;DHT22;44716;51.022;6.818;2024-01-07T09:06:46;20.20;59.30
58933;DHT22;44716;51.022;6.818;2024-01-07T09:09:11;20.20;59.30
58933;DHT22;44716;51.022;6.818;2024-01-07T09:11:37;20.20;59.30
58933;DHT22;44716;51.022;6.818;2024-01-07T09:14:02;20.20;59.20
58933;DHT22;44716;51.022;6.818;2024-01-07T09:16:29;20.20;59.20
58933;DHT22;44716;51.022;6.818;2024-01-07T09:18:54;20.20;59.20
58933;DHT22;44716;51.022;6.818;2024-01-07T09:21:20;20.20;59.20
58933;DHT22;44716;51.022;6.818;2024-01-07T09:23:45;20.20;59.10
58933;DHT22;44716;51.022;6.818;2024-01-07T09:26:11;20.20;59.10
58933;DHT22;44716;51.022;6.818;2024-01-07T09:28:37;20.30;59.10
58933;DHT22;44716;51.022;6.818;2024-01-07T09:31:02;20.30;59.00
58933;DHT22;44716;51.022;6.818;2024-01-07T09:33:28;20.30;59.10
58933;DHT22;44716;51.022;6.818;2024-01-07T09:35:54;20.30;59.00
58933;DHT22;44716;51.022;6.818;2024-01-07T09:38:20;20.30;59.10
58933;DHT22;44716;51.022;6.818;2024-01-07T09:40:46;20.30;59.00
58933;DHT22;44716;51.022;6.818;2024-01-07T09:43:11;20.40;59.00
58933;DHT22;44716;51.022;6.818;2024-01-07T09:45:38;20.30;59.80
58933;DHT22;44716;51.022;6.818;2024-01-07T09:48:04;20.30;59.70
58933;DHT22;44716;51.022;6.818;2024-01-07T09:50:30;20.40;59.70
58933;DHT22;44716;51.022;6.818;2024-01-07T09:52:56;20.40;59.40
58933;DHT22;44716;51.022;6.818;2024-01-07T09:55:31;20.40;59.70
58933;DHT22;44716;51.022;6.818;2024-01-07T09:57:58;20.40;59.60
58933;DHT22;44716;51.022;6.818;2024-01-07T10:00:25;20.40;59.20
58933;DHT22;44716;51.022;6.818;2024-01-07T10:02:51;20.40;59.10
58933;DHT22;44716;51.022;6.818;2024-01-07T10:05:17;20.40;59.30
58933;DHT22;44716;51.022;6.818;2024-01-07T10:07:42;20.30;58.80
58933;DHT22;44716;51.022;6.818;2024-01-07T10:10:17;20.00;51.20
58933;DHT22;44716;51.022;6.818;2024-01-07T10:12:46;19.90;55.20
58933;DHT22;44716;51.022;6.818;2024-01-07T10:15:12;20.00;57.20
58933;DHT22;44716;51.022;6.818;2024-01-07T10:17:37;20.20;57.30
58933;DHT22;44716;51.022;6.818;2024-01-07T10:20:05;20.30;56.80
58933;DHT22;44716;51.022;6.818;2024-01-07T10:22:31;20.40;57.50
58933;DHT22;44716;51.022;6.818;2024-01-07T10:24:56;20.50;57.50
58933;DHT22;44716;51.022;6.818;2024-01-07T10:27:23;20.60;57.70
58933;DHT22;44716;51.022;6.818;2024-01-07T10:29:49;20.70;58.20
58933;DHT22;44716;51.022;6.818;2024-01-07T10:32:15;20.70;58.30
58933;DHT22;44716;51.022;6.818;2024-01-07T10:34:44;20.80;58.20
58933;DHT22;44716;51.022;6.818;2024-01-07T10:37:12;20.80;58.40
58933;DHT22;44716;51.022;6.818;2024-01-07T10:39:38;20.90;58.40
58933;DHT22;44716;51.022;6.818;2024-01-07T10:42:03;20.90;58.20
58933;DHT22;44716;51.022;6.818;2024-01-07T10:44:30;20.90;57.90
58933;DHT22;44716;51.022;6.818;2024-01-07T10:46:56;20.90;58.00
58933;DHT22;44716;51.022;6.818;2024-01-07T10:49:22;21.00;58.00
58933;DHT22;44716;51.022;6.818;2024-01-07T10:52:07;21.10;58.10
58933;DHT22;44716;51.022;6.818;2024-01-07T10:54:36;21.20;58.10
58933;DHT22;44716;51.022;6.818;2024-01-07T10:59:46;21.20;58.00
58933;DHT22;44716;51.022;6.818;2024-01-07T11:02:12;21.10;57.80
58933;DHT22;44716;51.022;6.818;2024-01-07T11:12:10;21.20;57.70
58933;DHT22;44716;51.022;6.818;2024-01-07T11:14:40;21.20;57.60
58933;DHT22;44716;51.022;6.818;2024-01-07T11:17:10;21.20;58.00
58933;DHT22;44716;51.022;6.818;2024-01-07T11:19:35;21.30;57.90
58933;DHT22;44716;51.022;6.818;2024-01-07T11:24:45;21.40;58.00
58933;DHT22;44716;51.022;6.818;2024-01-07T11:27:11;21.30;57.90
58933;DHT22;44716;51.022;6.818;2024-01-07T11:29:37;21.40;57.60
58933;DHT22;44716;51.022;6.818;2024-01-07T11:32:03;21.40;57.50
58933;DHT22;44716;51.022;6.818;2024-01-07T11:34:42;21.40;57.50
58933;DHT22;44716;51.022;6.818;2024-01-07T11:37:12;21.40;57.60
58933;DHT22;44716;51.022;6.818;2024-01-07T11:39:42;21.40;57.60
58933;DHT22;44716;51.022;6.818;2024-01-07T11:42:07;21.40;57.60
58933;DHT22;44716;51.022;6.818;2024-01-07T11:44:34;21.40;57.60
58933;DHT22;44716;51.022;6.818;2024-01-07T11:46:59;21.50;57.60
58933;DHT22;44716;51.022;6.818;2024-01-07T11:49:25;21.40;57.60
58933;DHT22;44716;51.022;6.818;2024-01-07T11:51:50;21.40;57.80
58933;DHT22;44716;51.022;6.818;2024-01-07T11:54:16;21.30;57.80
58933;DHT22;44716;51.022;6.818;2024-01-07T11:56:43;21.40;57.90
58933;DHT22;44716;51.022;6.818;2024-01-07T11:59:08;21.30;58.30
58933;DHT22;44716;51.022;6.818;2024-01-07T12:01:34;21.30;58.10
58933;DHT22;44716;51.022;6.818;2024-01-07T12:03:59;21.30;57.80
58933;DHT22;44716;51.022;6.818;2024-01-07T12:06:25;21.30;57.90
58933;DHT22;44716;51.022;6.818;2024-01-07T12:08:50;21.30;57.70
58933;DHT22;44716;51.022;6.818;2024-01-07T12:11:16;21.20;57.60
58933;DHT22;44716;51.022;6.818;2024-01-07T12:13:42;21.30;57.60
58933;DHT22;44716;51.022;6.818;2024-01-07T12:16:08;21.30;57.50
58933;DHT22;44716;51.022;6.818;2024-01-07T12:18:37;21.30;57.60
58933;DHT22;44716;51.022;6.818;2024-01-07T12:21:03;21.20;57.80
58933;DHT22;44716;51.022;6.818;2024-01-07T12:23:29;21.20;57.90
58933;DHT22;44716;51.022;6.818;2024-01-07T12:26:06;21.20;58.10
58933;DHT22;44716;51.022;6.818;2024-01-07T12:28:32;21.20;58.30
58933;DHT22;44716;51.022;6.818;2024-01-07T12:30:57;21.10;58.40
58933;DHT22;44716;51.022;6.818;2024-01-07T12:33:24;21.20;58.50
58933;DHT22;44716;51.022;6.818;2024-01-07T12:35:51;21.10;58.70
58933;DHT22;44716;51.022;6.818;2024-01-07T12:38:22;21.10;58.70
58933;DHT22;44716;51.022;6.818;2024-01-07T12:40:47;21.20;58.80
58933;DHT22;44716;51.022;6.818;2024-01-07T12:43:13;21.20;58.70
58933;DHT22;44716;51.022;6.818;2024-01-07T12:45:39;21.20;58.80
58933;DHT22;44716;51.022;6.818;2024-01-07T12:48:04;21.10;58.90
58933;DHT22;44716;51.022;6.818;2024-01-07T12:50:30;21.10;59.10
58933;DHT22;44716;51.022;6.818;2024-01-07T12:52:56;21.10;59.10
58933;DHT22;44716;51.022;6.818;2024-01-07T12:55:22;21.10;59.10
58933;DHT22;44716;51.022;6.818;2024-01-07T12:57:48;21.10;59.10
58933;DHT22;44716;51.022;6.818;2024-01-07T13:00:14;21.10;59.00
58933;DHT22;44716;51.022;6.818;2024-01-07T13:02:40;21.10;59.10
58933;DHT22;44716;51.022;6.818;2024-01-07T13:05:06;21.00;59.50
58933;DHT22;44716;51.022;6.818;2024-01-07T13:07:32;21.00;59.80
58933;DHT22;44716;51.022;6.818;2024-01-07T13:09:57;21.00;60.00
58933;DHT22;44716;51.022;6.818;2024-01-07T13:12:23;21.00;59.90
58933;DHT22;44716;51.022;6.818;2024-01-07T13:14:48;21.10;59.80
58933;DHT22;44716;51.022;6.818;2024-01-07T13:17:14;21.10;59.90
58933;DHT22;44716;51.022;6.818;2024-01-07T13:19:40;21.10;59.60
58933;DHT22;44716;51.022;6.818;2024-01-07T13:22:05;21.10;59.90
58933;DHT22;44716;51.022;6.818;2024-01-07T13:24:31;21.10;60.00
58933;DHT22;44716;51.022;6.818;2024-01-07T13:26:56;21.10;59.60
58933;DHT22;44716;51.022;6.818;2024-01-07T13:29:22;21.10;59.70
58933;DHT22;44716;51.022;6.818;2024-01-07T13:31:48;21.10;59.80
58933;DHT22;44716;51.022;6.818;2024-01-07T13:34:13;21.10;59.80
58933;DHT22;44716;51.022;6.818;2024-01-07T13:36:39;21.10;59.60
58933;DHT22;44716;51.022;6.818;2024-01-07T13:39:05;21.20;59.50
58933;DHT22;44716;51.022;6.818;2024-01-07T13:41:33;21.10;60.20
58933;DHT22;44716;51.022;6.818;2024-01-07T13:43:59;21.10;59.60
58933;DHT22;44716;51.022;6.818;2024-01-07T13:46:25;21.20;59.50
58933;DHT22;44716;51.022;6.818;2024-01-07T13:48:51;21.20;59.50
58933;DHT22;44716;51.022;6.818;2024-01-07T13:51:20;21.10;59.60
58933;DHT22;44716;51.022;6.818;2024-01-07T13:53:45;21.10;59.80
58933;DHT22;44716;51.022;6.818;2024-01-07T13:56:11;21.10;59.50
58933;DHT22;44716;51.022;6.818;2024-01-07T13:58:37;21.10;59.50
58933;DHT22;44716;51.022;6.818;2024-01-07T14:01:03;21.10;59.50
58933;DHT22;44716;51.022;6.818;2024-01-07T14:03:31;21.10;59.60
58933;DHT22;44716;51.022;6.818;2024-01-07T14:05:58;21.00;59.70
58933;DHT22;44716;51.022;6.818;2024-01-07T14:08:24;21.00;59.90
58933;DHT22;44716;51.022;6.818;2024-01-07T14:10:49;21.10;59.80
58933;DHT22;44716;51.022;6.818;2024-01-07T14:13:15;21.10;59.70
58933;DHT22;44716;51.022;6.818;2024-01-07T14:15:42;21.10;59.70
58933;DHT22;44716;51.022;6.818;2024-01-07T14:18:07;21.10;59.70
58933;DHT22;44716;51.022;6.818;2024-01-07T14:20:35;21.10;59.80
58933;DHT22;44716;51.022;6.818;2024-01-07T14:23:00;21.10;60.00
58933;DHT22;44716;51.022;6.818;2024-01-07T14:25:26;21.20;59.70
58933;DHT22;44716;51.022;6.818;2024-01-07T14:27:52;21.20;59.40
58933;DHT22;44716;51.022;6.818;2024-01-07T14:30:18;21.20;59.50
58933;DHT22;44716;51.022;6.818;2024-01-07T14:32:44;21.30;59.50
58933;DHT22;44716;51.022;6.818;2024-01-07T14:35:11;21.30;59.70
58933;DHT22;44716;51.022;6.818;2024-01-07T14:37:37;21.30;59.50
58933;DHT22;44716;51.022;6.818;2024-01-07T14:40:02;21.20;59.20
58933;DHT22;44716;51.022;6.818;2024-01-07T14:42:29;21.20;59.30
58933;DHT22;44716;51.022;6.818;2024-01-07T14:44:55;21.20;59.20
58933;DHT22;44716;51.022;6.818;2024-01-07T14:47:21;21.10;59.10
58933;DHT22;44716;51.022;6.818;2024-01-07T14:49:47;21.10;59.30
58933;DHT22;44716;51.022;6.818;2024-01-07T14:52:13;21.10;59.20
58933;DHT22;44716;51.022;6.818;2024-01-07T14:54:38;21.20;59.40
58933;DHT22;44716;51.022;6.818;2024-01-07T14:57:04;21.10;59.20
58933;DHT22;44716;51.022;6.818;2024-01-07T14:59:29;21.10;59.50
58933;DHT22;44716;51.022;6.818;2024-01-07T15:01:55;21.10;59.30
58933;DHT22;44716;51.022;6.818;2024-01-07T15:04:20;21.10;59.30
58933;DHT22;44716;51.022;6.818;2024-01-07T15:06:46;21.10;59.20
58933;DHT22;44716;51.022;6.818;2024-01-07T15:09:14;21.10;59.10
58933;DHT22;44716;51.022;6.818;2024-01-07T15:11:40;21.10;59.10
58933;DHT22;44716;51.022;6.818;2024-01-07T15:14:07;21.10;59.10
58933;DHT22;44716;51.022;6.818;2024-01-07T15:16:36;21.00;59.10
58933;DHT22;44716;51.022;6.818;2024-01-07T15:19:02;21.00;59.50
58933;DHT22;44716;51.022;6.818;2024-01-07T15:21:27;21.00;59.30
58933;DHT22;44716;51.022;6.818;2024-01-07T15:23:53;21.10;59.30
58933;DHT22;44716;51.022;6.818;2024-01-07T15:26:18;21.10;59.10
58933;DHT22;44716;51.022;6.818;2024-01-07T15:28:44;21.10;59.00
58933;DHT22;44716;51.022;6.818;2024-01-07T15:31:09;21.10;59.10
58933;DHT22;44716;51.022;6.818;2024-01-07T15:33:35;21.20;58.90
58933;DHT22;44716;51.022;6.818;2024-01-07T15:36:04;21.20;58.80